^^

Nearby METAR Reports

 

EGHH - Bournemouth Airp, United Kingdom
Distance from station: S 10mi, 17km
Updated: 20/01/2020 19:50
NOT Current
Clear
Clear
 Wind from NW
Wind: NW 1 mph , 2 km/h
Temperature: -1°C
Dew Point: -2°C
Humidity: 93%
Barometer: 1046 hPa
Summary: Clear
Visibility: greater than 7 miles , 10 km
2020/01/20 19:50 EGHH 201950Z 32001KT CAVOK M01/M02 Q1046
EGDM - Boscombe Down, United Kingdom
Distance from station: N 16mi, 26km
Updated: 21/01/2020 01:50
Fog
Fog
 Wind from WNW
Wind: WNW 2 mph , 4 km/h
Temperature: -2°C
Dew Point: -2°C
Humidity: 100%
Barometer: 1043 hPa
Summary: Fog
Visibility: 0 mile , 0 km
2020/01/21 01:50 EGDM 210150Z AUTO 29002KT 0100 FG VV/// M02/M02 Q1043
 
EGVP - Middle Wallop, United Kingdom
Distance from station: NE 17mi, 27km
Updated: 21/01/2020 01:50
Mostly cloudy
Mostly cloudy
 Wind from NW
Wind: NW 3 mph , 6 km/h
Temperature: -2°C
Dew Point: -3°C
Humidity: 93%
Barometer: 1043 hPa
Clouds: Mostly cloudy
Visibility: 0 mile , 0 km
Cloud details: Mostly cloudy 30 m
2020/01/21 01:50 EGVP 210150Z AUTO 31003KT 0200 // BKN001/// M02/M03 Q1043
EGHI - Southampton Wx C, United Kingdom
Distance from station: E 19mi, 31km
Updated: 20/01/2020 21:50
NOT Current
Partly cloudy
Partly cloudy
 Wind from calm
Wind: Calm
Temperature: -1°C
Dew Point: -1°C
Humidity: 100%
Barometer: 1045 hPa
Clouds: Partly cloudy
Visibility: 4 miles , 7 km
2020/01/20 21:50 EGHI 202150Z 00000KT 7000 NSC M01/M01 Q1045
 
EGDY - Yeovilton (navy), United Kingdom
Distance from station: W 36mi, 58km
Updated: 21/01/2020 01:50
Freezing fog, Clear
Freezing fog, Clear
 Wind from NE
Wind: NE 2 mph , 4 km/h
Temperature: -3°C
Dew Point: -4°C
Humidity: 93%
Barometer: 1044 hPa
Summary: Freezing Fog
Clouds: Clear
Visibility: 0 mile , 1 km
2020/01/21 01:50 EGDY 210150Z 05002KT 0800 FZFG SKC M03/M04 Q1044 AMB
EGUO - Colerne Raf, United Kingdom
Distance from station: NNW 41mi, 66km
Updated: 14/02/2019 22:50
NOT Current
Clear
Clear
 Wind from ENE
Wind: ENE 1 mph , 2 km/h
Temperature: 1°C
Dew Point: 0°C
Humidity: 93%
Barometer: 1029 hPa
Summary: Clear
Visibility: greater than 7 miles , 10 km
2019/02/14 22:50 EGUO 142250Z 06001KT CAVOK 01/00 Q1029 BLU NOSIG
 
EGVO - Odiham Raf, United Kingdom
Distance from station: ENE 42mi, 68km
Updated: 21/01/2020 01:50
Mist, Clear
Mist, Clear
 Wind from SW
Wind: SW 2 mph , 4 km/h
Temperature: -2°C
Dew Point: -2°C
Humidity: 100%
Barometer: 1043 hPa
Summary: Mist
Clouds: Clear
Visibility: 6 miles , 9 km
2020/01/21 01:50 EGVO 210150Z 22002KT 9000 3000N BR SKC M02/M02 Q1043 RMK YLO1
EGGD - Bristol/Lulsgate, United Kingdom
Distance from station: NW 50mi, 81km
Updated: 21/01/2020 01:50
Clear
Clear
 Wind from calm
Wind: Calm
Temperature: 1°C
Dew Point: 0°C
Humidity: 93%
Barometer: 1043 hPa
Clouds: Clear
Visibility: 6 miles , 10 km
2020/01/21 01:50 EGGD 210150Z AUTO 00000KT 9999 NCD 01/00 Q1043